Time;durP1;ratioP1;P1;durP2;ratioP2;P2;SDS_P1;SDS_P2;PMS_P1;PMS_P2;Temp;Humidity;BMP_temperature;BMP_pressure;BME280_temperature;BME280_humidity;BME280_pressure;Samples;Min_cycle;Max_cycle;Signal;HPM_P1;HPM_P2
2023/11/25 00:01:14;;;;;;;;;;;;;;;19.11;67.32;98947.19;7375922;19;1427;-55
2023/11/25 00:03:43;;;;;;;;;;;;;;;19.08;67.70;98951.91;7391360;19;1548;-55
2023/11/25 00:06:11;;;;;;;;;;;;;;;19.00;67.66;98957.34;7392498;19;1466;-55
2023/11/25 00:08:39;;;;;;;;;;;;;;;19.03;67.76;98958.81;7392736;19;1592;-55
2023/11/25 00:11:10;;;;;;;;;;;;;;;19.11;67.50;98957.91;7391763;19;1803;-54
2023/11/25 00:13:39;;;;;;;;;;;;;;;19.02;67.73;98939.25;7390634;19;1842;-55
2023/11/25 00:16:10;;;;;;;;;;;;;;;19.11;67.38;98940.00;7387955;19;1629;-55
2023/11/25 00:18:38;;;;;;;;;;;;;;;19.21;67.26;98939.75;7391101;19;1456;-55
2023/11/25 00:21:06;;;;;;;;;;;;;;;19.14;67.36;98936.09;7390559;19;1532;-56
2023/11/25 00:23:34;;;;;;;;;;;;;;;19.12;67.41;98930.09;7391194;19;1544;-55
2023/11/25 00:26:03;;;;;;;;;;;;;;;19.06;67.46;98940.53;7391544;19;1617;-55
2023/11/25 00:28:34;;;;;;;;;;;;;;;19.00;67.92;98945.78;7390969;19;1572;-56
2023/11/25 00:31:03;;;;;;;;;;;;;;;19.00;67.92;98930.56;7388185;19;1372;-55
2023/11/25 00:33:31;;;;;;;;;;;;;;;18.99;67.73;98920.84;7396441;19;1835;-55
2023/11/25 00:36:00;;;;;;;;;;;;;;;18.98;67.80;98911.16;7398246;19;1300;-55
2023/11/25 00:38:29;;;;;;;;;;;;;;;19.01;67.73;98899.22;7399105;19;1533;-55
2023/11/25 00:40:58;;;;;;;;;;;;;;;19.05;67.48;98913.94;7399108;19;1691;-55
2023/11/25 00:43:26;;;;;;;;;;;;;;;19.07;67.46;98923.44;7397778;19;1790;-55
2023/11/25 00:45:57;;;;;;;;;;;;;;;19.13;67.19;98919.22;7395479;19;1514;-55
2023/11/25 00:48:25;;;;;;;;;;;;;;;19.11;67.22;98941.84;7397567;19;1548;-55
2023/11/25 00:50:54;;;;;;;;;;;;;;;19.14;67.11;98925.38;7397678;19;1612;-55
2023/11/25 00:53:23;;;;;;;;;;;;;;;19.13;67.18;98910.34;7396035;19;1863;-55
2023/11/25 00:55:51;;;;;;;;;;;;;;;19.05;67.32;98893.31;7397736;19;1690;-55
2023/11/25 00:58:20;;;;;;;;;;;;;;;19.00;67.50;98918.97;7397504;19;1492;-55
2023/11/25 01:00:49;;;;;;;;;;;;;;;18.98;67.76;98913.81;7382594;19;1443;-54
2023/11/25 01:03:20;;;;;;;;;;;;;;;18.98;67.64;98921.00;7396909;19;1646;-55
2023/11/25 01:05:49;;;;;;;;;;;;;;;18.98;67.57;98918.31;7398576;19;1509;-55
2023/11/25 01:08:17;;;;;;;;;;;;;;;18.95;67.50;98932.91;7397282;19;1550;-55
2023/11/25 01:10:45;;;;;;;;;;;;;;;18.94;67.75;98925.06;7396702;19;1428;-55
2023/11/25 01:13:14;;;;;;;;;;;;;;;18.93;67.56;98918.06;7396254;19;1859;-55
2023/11/25 01:15:42;;;;;;;;;;;;;;;18.96;67.58;98902.47;7398028;19;1532;-55
2023/11/25 01:18:10;;;;;;;;;;;;;;;18.91;67.52;98912.88;7398758;19;1563;-56
2023/11/25 01:20:41;;;;;;;;;;;;;;;19.01;67.37;98904.59;7398535;19;1493;-55
2023/11/25 01:23:10;;;;;;;;;;;;;;;19.06;67.33;98899.53;7396388;19;1522;-54
2023/11/25 01:25:38;;;;;;;;;;;;;;;19.01;67.51;98894.69;7396719;19;1661;-55
2023/11/25 01:28:07;;;;;;;;;;;;;;;19.02;67.64;98880.31;7397187;19;1620;-55
2023/11/25 01:30:38;;;;;;;;;;;;;;;18.98;67.59;98895.06;7395138;19;1695;-55
2023/11/25 01:33:07;;;;;;;;;;;;;;;19.00;67.59;98887.69;7394910;19;1862;-55
2023/11/25 01:35:35;;;;;;;;;;;;;;;18.98;67.55;98896.91;7396670;19;1563;-55
2023/11/25 01:38:06;;;;;;;;;;;;;;;18.99;67.65;98902.09;7396682;19;1518;-55
2023/11/25 01:40:36;;;;;;;;;;;;;;;18.90;67.51;98897.81;7396334;19;1618;-54
2023/11/25 01:43:08;;;;;;;;;;;;;;;18.97;67.36;98888.03;7394993;19;1624;-55
2023/11/25 01:45:37;;;;;;;;;;;;;;;19.06;67.08;98880.78;7394372;19;1948;-54
2023/11/25 01:48:05;;;;;;;;;;;;;;;19.13;66.90;98870.16;7394214;19;1792;-55
2023/11/25 01:50:36;;;;;;;;;;;;;;;18.98;67.00;98872.78;7396199;19;1660;-57
2023/11/25 01:53:08;;;;;;;;;;;;;;;18.97;67.54;98849.72;7366650;19;1873;-60
2023/11/25 01:55:36;;;;;;;;;;;;;;;19.07;67.86;98855.63;7393723;19;1620;-60
2023/11/25 01:58:05;;;;;;;;;;;;;;;19.12;68.13;98861.28;7392902;19;1613;-56
2023/11/25 02:00:34;;;;;;;;;;;;;;;19.12;67.60;98860.44;7387680;19;1433;-55
2023/11/25 02:03:03;;;;;;;;;;;;;;;19.05;67.84;98845.09;7384828;19;1391;-54
2023/11/25 02:05:32;;;;;;;;;;;;;;;19.15;67.82;98844.00;7393906;19;1722;-54
2023/11/25 02:08:00;;;;;;;;;;;;;;;19.13;67.65;98832.66;7393917;19;1909;-55
2023/11/25 02:10:31;;;;;;;;;;;;;;;19.12;67.46;98830.97;7395563;19;1532;-55
2023/11/25 02:13:01;;;;;;;;;;;;;;;19.13;67.39;98828.13;7392465;19;1857;-54
2023/11/25 02:15:30;;;;;;;;;;;;;;;19.10;67.28;98825.81;7393935;19;1438;-54
2023/11/25 02:17:58;;;;;;;;;;;;;;;19.05;67.50;98826.34;7392392;19;1660;-55
2023/11/25 02:20:35;;;;;;;;;;;;;;;19.01;67.57;98821.53;7394008;19;1635;-55
2023/11/25 02:23:06;;;;;;;;;;;;;;;19.02;67.76;98810.66;7394841;19;1521;-55
2023/11/25 02:25:35;;;;;;;;;;;;;;;19.62;66.24;98798.06;7394045;19;1580;-55
2023/11/25 02:28:04;;;;;;;;;;;;;;;20.38;64.01;98794.16;7393552;19;1529;-55
2023/11/25 02:30:32;;;;;;;;;;;;;;;21.21;61.75;98786.34;7392950;19;1472;-55
2023/11/25 02:33:00;;;;;;;;;;;;;;;21.59;60.84;98796.69;7392903;19;1981;-54
2023/11/25 02:35:29;;;;;;;;;;;;;;;21.74;60.31;98777.69;7394090;19;1415;-54
2023/11/25 02:37:58;;;;;;;;;;;;;;;21.86;60.01;98770.69;7394114;19;1581;-54
2023/11/25 02:40:29;;;;;;;;;;;;;;;22.04;59.51;98756.66;7394124;19;1624;-54
2023/11/25 02:42:57;;;;;;;;;;;;;;;21.99;59.82;98757.28;7392776;19;1886;-54
2023/11/25 02:45:26;;;;;;;;;;;;;;;21.85;60.27;98759.09;7390918;19;1482;-55
2023/11/25 02:47:55;;;;;;;;;;;;;;;21.83;60.30;98750.41;7392548;19;1588;-54
2023/11/25 02:50:24;;;;;;;;;;;;;;;21.82;60.25;98748.75;7393290;19;1592;-54
2023/11/25 02:52:52;;;;;;;;;;;;;;;21.80;60.34;98741.91;7393447;19;1774;-54
2023/11/25 02:55:22;;;;;;;;;;;;;;;21.89;60.06;98737.19;7376492;19;1873;-54
2023/11/25 02:57:53;;;;;;;;;;;;;;;21.91;60.10;98729.75;7394007;19;1705;-54
2023/11/25 03:00:28;;;;;;;;;;;;;;;21.68;59.96;98692.44;7393778;19;1504;-55
2023/11/25 03:03:00;;;;;;;;;;;;;;;22.04;60.06;98735.97;7393133;19;1441;-54
2023/11/25 03:05:31;;;;;;;;;;;;;;;22.07;59.90;98732.03;7394082;19;1731;-54
2023/11/25 03:08:00;;;;;;;;;;;;;;;22.14;59.91;98737.41;7385973;19;1832;-54
2023/11/25 03:10:30;;;;;;;;;;;;;;;22.05;60.21;98726.84;7390833;19;1551;-54
2023/11/25 03:13:01;;;;;;;;;;;;;;;22.09;60.14;98727.28;7390592;19;1541;-53
2023/11/25 03:15:30;;;;;;;;;;;;;;;22.17;59.83;98729.78;7387787;19;1849;-54
2023/11/25 03:17:58;;;;;;;;;;;;;;;22.19;59.76;98732.25;7391184;19;1523;-54
2023/11/25 03:20:27;;;;;;;;;;;;;;;22.19;59.67;98733.09;7392867;19;1704;-54
2023/11/25 03:22:55;;;;;;;;;;;;;;;22.32;59.65;98739.53;7392954;19;1561;-55
2023/11/25 03:25:27;;;;;;;;;;;;;;;22.31;59.28;98736.03;7394050;19;1611;-54
2023/11/25 03:27:56;;;;;;;;;;;;;;;22.37;59.27;98739.75;7393200;19;1827;-54
2023/11/25 03:30:28;;;;;;;;;;;;;;;22.33;59.22;98733.94;7392894;19;1610;-54
2023/11/25 03:32:56;;;;;;;;;;;;;;;22.38;59.19;98730.63;7391527;19;1588;-54
2023/11/25 03:35:25;;;;;;;;;;;;;;;22.38;59.15;98733.31;7391489;19;1841;-54
2023/11/25 03:37:53;;;;;;;;;;;;;;;22.41;59.36;98724.84;7392889;19;1633;-54
2023/11/25 03:40:22;;;;;;;;;;;;;;;22.48;59.11;98720.25;7391235;19;1935;-54
2023/11/25 03:42:50;;;;;;;;;;;;;;;22.48;59.10;98731.03;7392196;19;1529;-54
2023/11/25 03:45:18;;;;;;;;;;;;;;;22.57;58.78;98713.63;7390795;19;1656;-54
2023/11/25 03:47:51;;;;;;;;;;;;;;;22.58;59.10;98718.00;7391701;19;1951;-54
2023/11/25 03:50:19;;;;;;;;;;;;;;;22.54;59.17;98706.00;7392080;19;1615;-54
2023/11/25 03:52:48;;;;;;;;;;;;;;;22.53;59.12;98698.09;7391862;19;1525;-54
2023/11/25 03:55:16;;;;;;;;;;;;;;;22.50;59.29;98712.84;7375607;19;1878;-54
2023/11/25 03:57:45;;;;;;;;;;;;;;;21.84;60.64;98692.91;7392498;19;1620;-54
2023/11/25 04:00:17;;;;;;;;;;;;;;;21.34;61.75;98686.91;7391974;19;1501;-55
2023/11/25 04:02:46;;;;;;;;;;;;;;;20.97;62.68;98689.03;7391882;19;1552;-54
2023/11/25 04:05:17;;;;;;;;;;;;;;;20.75;63.21;98674.88;7392359;19;1565;-54
2023/11/25 04:07:46;;;;;;;;;;;;;;;20.59;63.81;98684.06;7397283;19;1192;-54
2023/11/25 04:10:15;;;;;;;;;;;;;;;20.46;64.30;98683.94;7399055;19;1559;-55
2023/11/25 04:12:43;;;;;;;;;;;;;;;20.32;64.27;98672.28;7399369;19;1613;-55
2023/11/25 04:15:13;;;;;;;;;;;;;;;20.20;64.82;98669.28;7396272;19;1923;-54
2023/11/25 04:17:41;;;;;;;;;;;;;;;20.17;64.83;98674.22;7399888;19;1439;-54
2023/11/25 04:20:17;;;;;;;;;;;;;;;20.21;64.61;98686.22;7399544;19;1517;-54
2023/11/25 04:22:49;;;;;;;;;;;;;;;20.15;65.09;98676.28;7398609;19;1551;-55
2023/11/25 04:25:18;;;;;;;;;;;;;;;20.15;65.03;98690.50;7397733;19;2025;-54
2023/11/25 04:27:47;;;;;;;;;;;;;;;20.07;65.02;98690.66;7398952;19;1450;-55
2023/11/25 04:30:16;;;;;;;;;;;;;;;20.03;65.27;98710.84;7397612;19;1536;-54
2023/11/25 04:32:45;;;;;;;;;;;;;;;19.98;65.15;98708.75;7398961;19;1273;-55
2023/11/25 04:35:14;;;;;;;;;;;;;;;19.95;65.20;98708.28;7397028;19;1882;-54
2023/11/25 04:37:43;;;;;;;;;;;;;;;19.93;65.29;98699.59;7397851;19;1815;-55
2023/11/25 04:40:16;;;;;;;;;;;;;;;19.91;65.32;98707.00;7394922;19;1682;-54
2023/11/25 04:42:45;;;;;;;;;;;;;;;19.86;65.50;98710.28;7398020;19;1509;-55
2023/11/25 04:45:16;;;;;;;;;;;;;;;19.86;65.41;98716.47;7397406;19;1470;-55
2023/11/25 04:47:47;;;;;;;;;;;;;;;19.81;65.45;98708.16;7397434;19;1538;-54
2023/11/25 04:50:15;;;;;;;;;;;;;;;19.81;65.44;98702.78;7397610;19;1500;-55
2023/11/25 04:52:44;;;;;;;;;;;;;;;19.79;65.35;98709.38;7396840;19;1494;-55
2023/11/25 04:55:15;;;;;;;;;;;;;;;19.79;65.40;98718.25;7377729;19;1862;-55
2023/11/25 04:57:44;;;;;;;;;;;;;;;19.66;65.86;98708.19;7397580;19;1510;-54
2023/11/25 05:00:13;;;;;;;;;;;;;;;19.55;66.07;98716.72;7393629;19;1947;-54
2023/11/25 05:02:42;;;;;;;;;;;;;;;19.50;66.29;98710.25;7394466;19;1407;-55
2023/11/25 05:05:11;;;;;;;;;;;;;;;19.50;66.34;98711.09;7396891;19;1471;-54
2023/11/25 05:07:39;;;;;;;;;;;;;;;19.53;66.29;98704.53;7398194;19;1450;-54
2023/11/25 05:10:09;;;;;;;;;;;;;;;19.56;66.01;98683.53;7394532;19;1571;-55
2023/11/25 05:12:42;;;;;;;;;;;;;;;19.64;65.77;98693.31;7393942;19;1853;-55
2023/11/25 05:15:11;;;;;;;;;;;;;;;19.54;65.86;98698.16;7394158;19;1815;-55
2023/11/25 05:17:40;;;;;;;;;;;;;;;19.43;66.24;98692.25;7394161;19;1492;-54
2023/11/25 05:20:15;;;;;;;;;;;;;;;19.41;66.37;98674.69;7396244;19;1552;-54
2023/11/25 05:22:43;;;;;;;;;;;;;;;19.38;66.54;98665.19;7397534;19;1560;-55
2023/11/25 05:25:13;;;;;;;;;;;;;;;19.36;66.46;98661.03;7395422;19;1493;-55
2023/11/25 05:27:44;;;;;;;;;;;;;;;19.32;66.61;98667.78;7398642;19;1492;-58
2023/11/25 05:30:13;;;;;;;;;;;;;;;19.33;66.49;98667.59;7396795;19;1437;-55
2023/11/25 05:32:42;;;;;;;;;;;;;;;19.43;66.03;98661.94;7398223;19;1607;-55
2023/11/25 05:35:12;;;;;;;;;;;;;;;19.55;65.48;98678.34;7396977;19;1852;-54
2023/11/25 05:37:42;;;;;;;;;;;;;;;19.61;65.56;98680.28;7397829;19;1198;-55
2023/11/25 05:40:11;;;;;;;;;;;;;;;19.48;65.65;98681.81;7395500;19;1489;-55
2023/11/25 05:42:47;;;;;;;;;;;;;;;19.37;65.99;98701.03;7394677;19;1578;-55
2023/11/25 05:45:20;;;;;;;;;;;;;;;19.33;66.33;98698.94;7394256;19;2130;-54
2023/11/25 05:47:48;;;;;;;;;;;;;;;19.34;66.26;98708.63;7396378;19;1512;-54
2023/11/25 05:50:19;;;;;;;;;;;;;;;19.35;66.25;98710.28;7395369;19;1494;-55
2023/11/25 05:52:48;;;;;;;;;;;;;;;19.33;66.06;98707.81;7395853;19;1576;-54
2023/11/25 05:55:19;;;;;;;;;;;;;;;19.30;66.36;98700.16;7377530;19;1874;-54
2023/11/25 05:57:50;;;;;;;;;;;;;;;19.31;66.14;98704.47;7394633;19;1524;-54
2023/11/25 06:00:21;;;;;;;;;;;;;;;19.32;66.10;98706.16;7392820;19;2835;-54
2023/11/25 06:02:52;;;;;;;;;;;;;;;19.32;66.05;98716.03;7393810;19;1513;-54
2023/11/25 06:05:20;;;;;;;;;;;;;;;19.29;66.07;98698.47;7394240;19;1435;-55
2023/11/25 06:07:49;;;;;;;;;;;;;;;19.27;65.92;98695.16;7394958;19;1458;-54
2023/11/25 06:10:18;;;;;;;;;;;;;;;19.16;66.21;98687.59;7394183;19;1384;-54
2023/11/25 06:12:47;;;;;;;;;;;;;;;19.13;66.32;98694.16;7393974;19;1495;-54
2023/11/25 06:15:15;;;;;;;;;;;;;;;19.13;66.63;98693.34;7393605;19;1845;-54
2023/11/25 06:17:47;;;;;;;;;;;;;;;19.12;66.43;98699.69;7394287;19;1602;-55
2023/11/25 06:20:16;;;;;;;;;;;;;;;19.13;66.39;98696.84;7394277;19;1477;-55
2023/11/25 06:22:44;;;;;;;;;;;;;;;19.14;66.31;98692.28;7394759;19;1473;-54
2023/11/25 06:25:13;;;;;;;;;;;;;;;19.25;66.03;98702.56;7394284;19;1513;-54
2023/11/25 06:27:42;;;;;;;;;;;;;;;19.22;66.00;98698.41;7389126;19;1409;-55
2023/11/25 06:30:11;;;;;;;;;;;;;;;19.28;66.23;98702.19;7392233;19;1494;-54
2023/11/25 06:32:39;;;;;;;;;;;;;;;19.99;64.50;98677.38;7392260;19;1232;-54
2023/11/25 06:35:12;;;;;;;;;;;;;;;20.34;63.50;98691.72;7393751;19;1839;-56
2023/11/25 06:37:41;;;;;;;;;;;;;;;20.25;64.01;98699.09;7394467;19;1838;-56
2023/11/25 06:40:12;;;;;;;;;;;;;;;19.97;64.96;98695.50;7393334;19;1492;-54
2023/11/25 06:42:40;;;;;;;;;;;;;;;19.93;65.43;98710.34;7387812;19;1395;-54
2023/11/25 06:45:09;;;;;;;;;;;;;;;20.22;64.83;98693.25;7392312;19;1630;-54
2023/11/25 06:47:38;;;;;;;;;;;;;;;20.55;63.89;98698.91;7393120;19;1513;-54
2023/11/25 06:50:07;;;;;;;;;;;;;;;20.26;64.41;98687.31;7393630;19;1528;-54
2023/11/25 06:52:38;;;;;;;;;;;;;;;20.01;65.32;98712.88;7392061;19;1561;-54
2023/11/25 06:55:07;;;;;;;;;;;;;;;20.07;65.29;98685.28;7376561;19;1888;-54
2023/11/25 06:57:35;;;;;;;;;;;;;;;20.65;64.92;98694.03;7391561;19;1596;-55
2023/11/25 07:00:03;;;;;;;;;;;;;;;20.71;64.36;98702.31;7388176;19;1430;-51
2023/11/25 07:02:33;;;;;;;;;;;;;;;20.41;64.98;98702.47;7389365;19;1449;-57
2023/11/25 07:05:01;;;;;;;;;;;;;;;20.23;66.14;98697.59;7390323;19;1435;-40
2023/11/25 07:07:29;;;;;;;;;;;;;;;20.13;67.60;98695.25;7393324;19;1584;-40
2023/11/25 07:10:00;;;;;;;;;;;;;;;20.57;65.90;98693.31;7391393;19;1569;-41
2023/11/25 07:12:30;;;;;;;;;;;;;;;20.63;65.21;98701.47;7390223;19;1467;-41
2023/11/25 07:14:58;;;;;;;;;;;;;;;20.34;66.05;98686.34;7389131;19;1889;-41
2023/11/25 07:17:26;;;;;;;;;;;;;;;20.08;66.85;98710.28;7391385;19;1410;-41
2023/11/25 07:19:58;;;;;;;;;;;;;;;19.93;67.58;98707.66;7389167;19;1499;-41
2023/11/25 07:22:27;;;;;;;;;;;;;;;20.21;66.56;98708.53;7392036;19;1630;-41
2023/11/25 07:24:56;;;;;;;;;;;;;;;20.60;65.61;98707.19;7390862;19;1513;-40
2023/11/25 07:27:28;;;;;;;;;;;;;;;20.49;66.11;98713.06;7390541;19;1443;-44
2023/11/25 07:30:00;;;;;;;;;;;;;;;20.16;67.29;98713.66;7389263;19;1601;-51
2023/11/25 07:32:29;;;;;;;;;;;;;;;19.98;68.22;98722.16;7391392;19;1501;-48
2023/11/25 07:34:57;;;;;;;;;;;;;;;20.05;68.01;98730.25;7390198;19;1841;-49
2023/11/25 07:40:21;;;;;;;;;;;;;;;20.56;66.67;98724.69;7389969;19;1503;-47
2023/11/25 07:42:52;;;;;;;;;;;;;;;20.32;67.17;98725.97;7388537;19;1757;-47
2023/11/25 07:45:20;;;;;;;;;;;;;;;20.03;68.04;98724.25;7390194;19;1584;-46
2023/11/25 08:00:28;;;;;;;;;;;;;;;20.45;66.50;98727.91;6671356;19;10002475;-43
2023/11/25 08:02:58;;;;;;;;;;;;;;;20.09;67.12;98715.44;7334964;19;1382;-41
2023/11/25 08:05:28;;;;;;;;;;;;;;;19.93;67.62;98715.69;7327990;19;1360;-41
2023/11/25 08:07:57;;;;;;;;;;;;;;;20.14;66.94;98696.91;7324527;19;2511;-41
2023/11/25 08:10:34;;;;;;;;;;;;;;;20.51;66.13;98694.91;7331104;19;1457;-47
2023/11/25 08:13:02;;;;;;;;;;;;;;;20.50;65.64;98701.31;7327965;19;1395;-42
2023/11/25 08:15:33;;;;;;;;;;;;;;;20.12;66.42;98698.13;7322357;19;1321;-42
2023/11/25 08:18:03;;;;;;;;;;;;;;;19.91;67.35;98723.09;7332812;19;1161;-41
2023/11/25 08:20:33;;;;;;;;;;;;;;;19.98;67.04;98724.84;7328003;19;1348;-43
2023/11/25 08:23:01;;;;;;;;;;;;;;;20.26;66.04;98711.47;7327763;19;2433;-42
2023/11/25 08:25:29;;;;;;;;;;;;;;;20.48;64.47;98708.75;7325065;19;1271;-41
2023/11/25 08:27:58;;;;;;;;;;;;;;;20.24;64.99;98745.72;7330338;19;2276;-41
2023/11/25 08:30:26;;;;;;;;;;;;;;;20.01;65.96;98702.97;7327753;19;1300;-41
2023/11/25 08:32:59;;;;;;;;;;;;;;;19.99;65.43;98717.63;7326463;19;1481;-41
2023/11/25 08:35:28;;;;;;;;;;;;;;;20.41;64.46;98710.53;7328702;19;1253;-41
2023/11/25 08:37:57;;;;;;;;;;;;;;;20.63;64.07;98714.88;7322833;19;1297;-42
2023/11/25 08:40:27;;;;;;;;;;;;;;;20.36;64.56;98702.25;7325041;19;1317;-42
2023/11/25 08:42:56;;;;;;;;;;;;;;;20.11;65.10;98725.97;7316174;19;1347;-42
2023/11/25 08:45:24;;;;;;;;;;;;;;;19.98;65.36;98714.09;7317803;19;1559;-42
2023/11/25 08:47:53;;;;;;;;;;;;;;;20.26;64.67;98732.94;7317889;19;1884;-42
2023/11/25 08:50:24;;;;;;;;;;;;;;;20.74;63.21;98713.50;7322913;19;1357;-42
2023/11/25 08:52:53;;;;;;;;;;;;;;;20.94;62.53;98708.25;7325801;19;1313;-42
2023/11/25 08:55:22;;;;;;;;;;;;;;;20.79;62.99;98712.91;7327087;19;1412;-42
2023/11/25 08:57:50;;;;;;;;;;;;;;;20.44;63.50;98707.47;7325856;19;1351;-42
2023/11/25 09:00:21;;;;;;;;;;;;;;;20.20;64.46;98732.88;7305992;19;2597;-42
2023/11/25 09:02:51;;;;;;;;;;;;;;;20.04;64.89;98728.59;7297794;19;1531;-42
2023/11/25 09:05:21;;;;;;;;;;;;;;;19.94;65.28;98718.19;7299378;19;1461;-42
2023/11/25 09:07:54;;;;;;;;;;;;;;;19.89;65.38;98706.38;7297656;19;1459;-42
2023/11/25 09:10:24;;;;;;;;;;;;;;;19.85;65.40;98741.63;7293639;19;1877;-42
2023/11/25 09:12:53;;;;;;;;;;;;;;;19.84;65.80;98697.06;7294497;19;1384;-42
2023/11/25 09:15:22;;;;;;;;;;;;;;;19.40;65.59;98633.66;7297788;19;1329;-42
2023/11/25 09:17:50;;;;;;;;;;;;;;;19.88;65.45;98712.78;7295080;19;2398;-42
2023/11/25 09:20:20;;;;;;;;;;;;;;;20.37;64.27;98695.84;7296962;19;1695;-41
2023/11/25 09:22:49;;;;;;;;;;;;;;;20.91;62.72;98699.75;7303346;19;1360;-46
2023/11/25 09:25:20;;;;;;;;;;;;;;;20.61;63.47;98686.53;7297725;19;1397;-41
2023/11/25 09:27:50;;;;;;;;;;;;;;;20.26;64.43;98683.81;7295193;19;2335;-41
2023/11/25 09:30:18;;;;;;;;;;;;;;;20.01;65.04;98676.16;7294731;19;1872;-42
2023/11/25 09:32:47;;;;;;;;;;;;;;;20.09;65.05;98664.44;7297155;19;1362;-47
2023/11/25 09:35:15;;;;;;;;;;;;;;;20.64;63.65;98656.63;7296324;19;1359;-41
2023/11/25 09:37:44;;;;;;;;;;;;;;;20.75;63.40;98665.97;7297259;19;1279;-42
2023/11/25 09:40:14;;;;;;;;;;;;;;;20.37;64.42;98674.38;7291442;19;1220;-42
2023/11/25 09:42:46;;;;;;;;;;;;;;;20.19;64.92;98670.34;7291562;19;1288;-41
2023/11/25 09:45:15;;;;;;;;;;;;;;;19.98;65.53;98654.25;7291275;19;1504;-42
2023/11/25 09:47:44;;;;;;;;;;;;;;;19.88;65.66;98669.84;7295879;19;1050;-42
2023/11/25 09:50:13;;;;;;;;;;;;;;;20.26;65.04;98673.06;7293355;19;1885;-42
2023/11/25 09:52:45;;;;;;;;;;;;;;;20.64;63.95;98652.06;7293791;19;1701;-43
2023/11/25 09:55:14;;;;;;;;;;;;;;;20.60;64.62;98668.78;7293926;19;1719;-42
2023/11/25 09:57:49;;;;;;;;;;;;;;;20.30;64.60;98666.28;7290158;19;2277;-42
2023/11/25 10:00:21;;;;;;;;;;;;;;;19.98;65.47;98668.50;7293730;19;1287;-42
2023/11/25 10:02:53;;;;;;;;;;;;;;;20.13;65.28;98681.81;7298291;19;1653;-42
2023/11/25 10:05:22;;;;;;;;;;;;;;;20.57;64.15;98661.94;7297058;19;1324;-42
2023/11/25 10:07:50;;;;;;;;;;;;;;;20.69;63.92;98662.25;7296279;19;1400;-42
2023/11/25 10:10:23;;;;;;;;;;;;;;;20.32;64.77;98676.81;7294463;19;1864;-42
2023/11/25 10:12:54;;;;;;;;;;;;;;;20.08;65.68;98660.13;7293736;19;1374;-42
2023/11/25 10:15:23;;;;;;;;;;;;;;;20.02;66.17;98666.25;7296205;19;2604;-42
2023/11/25 10:17:54;;;;;;;;;;;;;;;20.43;65.59;98670.91;7296982;19;1341;-42
2023/11/25 10:20:23;;;;;;;;;;;;;;;20.60;64.63;98671.47;7294694;19;1785;-42
2023/11/25 10:22:53;;;;;;;;;;;;;;;20.45;65.17;98679.59;7296827;19;1480;-42
2023/11/25 10:25:22;;;;;;;;;;;;;;;20.15;66.00;98671.72;7294203;19;1290;-42
2023/11/25 10:27:51;;;;;;;;;;;;;;;19.97;66.75;98666.00;7295278;19;1378;-42
2023/11/25 10:30:23;;;;;;;;;;;;;;;20.23;65.98;98662.69;7294247;19;1865;-42
2023/11/25 10:32:54;;;;;;;;;;;;;;;20.66;65.07;98662.63;7296562;19;1543;-42
2023/11/25 10:35:24;;;;;;;;;;;;;;;20.68;65.05;98660.56;7296403;19;1354;-42
2023/11/25 10:37:53;;;;;;;;;;;;;;;20.37;65.54;98656.44;7294133;19;2530;-42
2023/11/25 10:40:21;;;;;;;;;;;;;;;20.15;66.29;98657.47;7294630;19;1346;-42
2023/11/25 10:42:50;;;;;;;;;;;;;;;20.02;66.86;98655.53;7281849;19;1360;-41
2023/11/25 10:45:18;;;;;;;;;;;;;;;20.56;65.37;98652.19;7297597;19;1380;-42
2023/11/25 10:47:49;;;;;;;;;;;;;;;20.96;64.17;98640.88;7297730;19;1121;-42
2023/11/25 10:50:18;;;;;;;;;;;;;;;20.63;64.68;98649.56;7291690;19;2502;-42
2023/11/25 10:52:46;;;;;;;;;;;;;;;20.30;65.33;98636.75;7296671;19;1516;-42
2023/11/25 10:55:15;;;;;;;;;;;;;;;20.13;65.95;98630.84;7296136;19;1510;-42
2023/11/25 10:57:43;;;;;;;;;;;;;;;20.03;66.11;98625.84;7294682;19;1418;-42
2023/11/25 11:00:13;;;;;;;;;;;;;;;20.01;66.30;98638.59;7293970;19;1367;-42
2023/11/25 11:02:45;;;;;;;;;;;;;;;20.01;66.46;98632.41;7295250;19;1409;-42
2023/11/25 11:05:17;;;;;;;;;;;;;;;20.07;65.89;98639.66;7296647;19;1429;-42
2023/11/25 11:07:47;;;;;;;;;;;;;;;20.68;64.21;98638.25;7295707;19;1446;-42
2023/11/25 11:10:17;;;;;;;;;;;;;;;20.90;63.99;98625.56;7296169;19;1834;-50
2023/11/25 11:12:47;;;;;;;;;;;;;;;20.67;64.29;98629.34;7295482;19;1534;-42
2023/11/25 11:15:17;;;;;;;;;;;;;;;20.27;65.27;98616.50;7293763;19;2500;-43
2023/11/25 11:17:54;;;;;;;;;;;;;;;20.01;66.21;98609.06;7295880;19;1270;-42
2023/11/25 11:20:27;;;;;;;;;;;;;;;20.36;65.27;98602.94;7297806;19;1691;-46
2023/11/25 11:22:55;;;;;;;;;;;;;;;20.84;63.96;98608.38;7295218;19;1832;-42
2023/11/25 11:25:28;;;;;;;;;;;;;;;20.71;64.21;98606.47;7294734;19;1361;-42
2023/11/25 11:28:02;;;;;;;;;;;;;;;20.22;64.70;98612.75;7294830;19;1491;-42
2023/11/25 11:30:38;;;;;;;;;;;;;;;20.12;65.67;98602.34;7292602;19;2431;-42
2023/11/25 11:33:07;;;;;;;;;;;;;;;19.99;66.09;98618.34;7295435;19;1383;-42
2023/11/25 11:35:40;;;;;;;;;;;;;;;20.32;65.07;98607.88;7296446;19;1432;-42
2023/11/25 11:38:23;;;;;;;;;;;;;;;20.85;63.66;98588.56;7297730;19;1367;-43
2023/11/25 11:40:53;;;;;;;;;;;;;;;20.80;63.74;98599.06;7293246;19;1376;-43
2023/11/25 11:43:22;;;;;;;;;;;;;;;20.41;64.72;98590.59;7294961;19;1434;-42
2023/11/25 11:45:51;;;;;;;;;;;;;;;20.13;65.39;98592.44;7295024;19;1362;-42
2023/11/25 11:48:21;;;;;;;;;;;;;;;20.04;65.54;98589.09;7294338;19;2627;-42
2023/11/25 11:50:54;;;;;;;;;;;;;;;20.34;63.92;98548.63;7294721;19;1858;-42
2023/11/25 11:53:25;;;;;;;;;;;;;;;20.97;62.46;98595.00;7294765;19;1667;-43
2023/11/25 11:55:54;;;;;;;;;;;;;;;20.57;63.58;98602.84;7296843;19;1527;-42
2023/11/25 11:58:20;;;;;;;;;;;;;;;20.26;64.60;98598.75;7293742;19;1478;-45
2023/11/25 12:00:49;;;;;;;;;;;;;;;20.04;65.10;98599.81;7291680;19;1720;-42
2023/11/25 12:03:19;;;;;;;;;;;;;;;20.11;65.16;98600.69;7295756;19;1456;-42
2023/11/25 12:05:47;;;;;;;;;;;;;;;20.57;63.91;98594.81;7293737;19;1381;-42
2023/11/25 12:08:18;;;;;;;;;;;;;;;20.76;63.36;98587.06;7289937;19;2461;-45
2023/11/25 12:10:47;;;;;;;;;;;;;;;20.48;63.92;98606.72;7294074;19;1881;-42
2023/11/25 12:13:26;;;;;;;;;;;;;;;20.21;65.13;98595.81;7292238;19;2484;-42
2023/11/25 12:15:58;;;;;;;;;;;;;;;20.07;65.56;98596.75;7295110;19;1370;-42
2023/11/25 12:18:27;;;;;;;;;;;;;;;20.08;65.94;98598.41;7290305;19;1999;-42
2023/11/25 12:20:56;;;;;;;;;;;;;;;20.32;65.44;98607.03;7295437;19;1549;-42
2023/11/25 12:23:27;;;;;;;;;;;;;;;20.42;64.91;98591.41;7295435;19;1731;-42
2023/11/25 12:25:56;;;;;;;;;;;;;;;20.22;65.64;98592.09;7295583;19;1314;-42
2023/11/25 12:28:24;;;;;;;;;;;;;;;20.10;65.75;98592.84;7294323;19;1797;-42
2023/11/25 12:30:53;;;;;;;;;;;;;;;20.02;65.97;98608.06;7293215;19;1857;-42
2023/11/25 12:33:21;;;;;;;;;;;;;;;20.12;64.95;98605.03;7294233;19;1394;-42
2023/11/25 12:35:50;;;;;;;;;;;;;;;20.21;63.46;98531.44;7295290;19;1726;-43
2023/11/25 12:38:18;;;;;;;;;;;;;;;20.61;63.52;98587.19;7300668;19;1433;-42
2023/11/25 12:40:49;;;;;;;;;;;;;;;20.27;64.19;98588.81;7297478;19;1271;-42
2023/11/25 12:43:18;;;;;;;;;;;;;;;20.04;64.85;98594.47;7293497;19;2394;-43
2023/11/25 12:45:47;;;;;;;;;;;;;;;19.98;64.70;98605.97;7297820;19;1272;-43
2023/11/25 12:48:20;;;;;;;;;;;;;;;20.35;63.66;98598.56;7302979;19;1300;-43
2023/11/25 12:51:03;;;;;;;;;;;;;;;20.18;62.77;98521.06;7304102;19;1867;-43
2023/11/25 12:53:31;;;;;;;;;;;;;;;20.29;63.55;98596.69;7296871;19;1409;-45
2023/11/25 12:56:03;;;;;;;;;;;;;;;20.00;63.83;98587.84;7297595;19;1461;-43
2023/11/25 12:58:31;;;;;;;;;;;;;;;19.87;63.94;98572.44;7298257;19;1363;-42
2023/11/25 13:01:00;;;;;;;;;;;;;;;20.26;63.17;98569.22;7300614;19;1372;-42
2023/11/25 13:03:30;;;;;;;;;;;;;;;20.71;61.93;98566.19;7297707;19;1414;-42
2023/11/25 13:06:01;;;;;;;;;;;;;;;20.59;62.44;98557.03;7297850;19;1467;-42
2023/11/25 13:08:32;;;;;;;;;;;;;;;20.19;63.43;98567.50;7297770;19;1283;-42
2023/11/25 13:11:08;;;;;;;;;;;;;;;19.95;63.90;98563.44;7296082;19;1859;-42
2023/11/25 13:13:37;;;;;;;;;;;;;;;20.04;63.94;98578.38;7293370;19;2460;-42
2023/11/25 13:16:08;;;;;;;;;;;;;;;20.46;62.53;98568.50;7297022;19;1421;-42
2023/11/25 13:18:37;;;;;;;;;;;;;;;20.81;61.63;98546.97;7297510;19;1409;-42
2023/11/25 13:21:06;;;;;;;;;;;;;;;20.42;62.52;98548.44;7296658;19;1437;-42
2023/11/25 13:23:35;;;;;;;;;;;;;;;20.03;63.55;98548.03;7301076;19;1376;-42
2023/11/25 13:26:07;;;;;;;;;;;;;;;19.85;64.10;98559.22;7301228;19;1379;-43